Time;durP1;ratioP1;P1;durP2;ratioP2;P2;SDS_P1;SDS_P2;PMS_P1;PMS_P2;Temp;Humidity;BMP_temperature;BMP_pressure;BME280_temperature;BME280_humidity;BME280_pressure;Samples;Min_cycle;Max_cycle;Signal;HPM_P1;HPM_P2
2022/06/06 00:00:04;;;;;;;3.05;1.98;;;;;;;;;;6246010;23;20015;-68
2022/06/06 00:02:30;;;;;;;4.20;1.92;;;;;;;;;;6245710;23;20019;-68
2022/06/06 00:04:57;;;;;;;3.88;2.22;;;;;;;;;;6246067;23;20005;-68
2022/06/06 00:07:22;;;;;;;3.45;2.03;;;;;;;;;;6245761;23;20012;-68
2022/06/06 00:09:48;;;;;;;5.18;2.30;;;;;;;;;;6245792;23;19999;-68
2022/06/06 00:12:15;;;;;;;5.15;2.13;;;;;;;;;;6245994;23;20035;-68
2022/06/06 00:14:40;;;;;;;4.15;2.30;;;;;;;;;;6245818;23;20015;-68
2022/06/06 00:17:05;;;;;;;3.67;1.90;;;;;;;;;;6245601;23;20003;-68
2022/06/06 00:19:31;;;;;;;4.53;2.03;;;;;;;;;;6245396;23;20012;-68
2022/06/06 00:21:56;;;;;;;6.78;2.38;;;;;;;;;;6245490;23;19993;-68
2022/06/06 00:24:21;;;;;;;6.68;2.33;;;;;;;;;;6245912;23;19999;-68
2022/06/06 00:26:46;;;;;;;3.53;2.00;;;;;;;;;;6245621;23;20105;-68
2022/06/06 00:29:16;;;;;;;6.60;2.40;;;;;;;;;;6245556;23;20000;-68
2022/06/06 00:37:12;;;;;;;6.25;2.50;;;;;;;;;;6245542;23;20015;-68
2022/06/06 00:39:37;;;;;;;5.20;2.50;;;;;;;;;;6245724;23;20008;-68
2022/06/06 00:42:09;;;;;;;4.55;2.30;;;;;;;;;;6245716;23;20019;-68
2022/06/06 00:44:35;;;;;;;4.35;2.50;;;;;;;;;;6245690;23;20363;-68
2022/06/06 00:47:05;;;;;;;6.00;2.50;;;;;;;;;;6245516;23;20012;-68
2022/06/06 00:50:00;;;;;;;7.90;2.22;;;;;;;;;;6245399;23;20046;-68
2022/06/06 00:52:30;;;;;;;7.32;2.35;;;;;;;;;;6212404;23;20005;-68
2022/06/06 00:54:58;;;;;;;5.72;3.13;;;;;;;;;;6245831;23;20004;-67
2022/06/06 00:57:25;;;;;;;4.43;2.50;;;;;;;;;;6245711;23;20000;-68
2022/06/06 00:59:51;;;;;;;4.70;2.65;;;;;;;;;;6245357;23;20087;-68
2022/06/06 01:02:17;;;;;;;6.10;2.88;;;;;;;;;;6245323;23;20446;-68
2022/06/06 01:04:42;;;;;;;6.90;3.15;;;;;;;;;;6245820;23;20466;-68
2022/06/06 01:07:09;;;;;;;6.53;3.05;;;;;;;;;;6245052;23;20008;-68
2022/06/06 01:09:34;;;;;;;4.60;2.78;;;;;;;;;;6245102;23;20432;-68
2022/06/06 01:12:02;;;;;;;6.63;2.95;;;;;;;;;;6245370;23;20000;-68
2022/06/06 01:14:31;;;;;;;6.22;2.83;;;;;;;;;;6246033;23;20003;-68
2022/06/06 01:16:56;;;;;;;6.30;3.03;;;;;;;;;;6248089;23;20004;-68
2022/06/06 01:19:40;;;;;;;4.85;2.90;;;;;;;;;;6247185;23;20032;-68
2022/06/06 01:22:11;;;;;;;5.00;3.20;;;;;;;;;;6247130;23;20517;-68
2022/06/06 01:24:42;;;;;;;5.32;3.53;;;;;;;;;;6247550;23;20004;-68
2022/06/06 01:27:28;;;;;;;5.45;3.35;;;;;;;;;;6247079;23;20417;-68
2022/06/06 01:29:57;;;;;;;8.38;3.33;;;;;;;;;;6247578;23;20053;-68
2022/06/06 01:32:23;;;;;;;5.32;3.20;;;;;;;;;;6247326;23;20006;-68
2022/06/06 01:34:50;;;;;;;8.88;3.30;;;;;;;;;;6247422;23;20091;-68
2022/06/06 01:37:30;;;;;;;6.25;3.58;;;;;;;;;;6247271;23;19988;-68
2022/06/06 01:39:56;;;;;;;6.15;3.45;;;;;;;;;;6247256;23;20023;-68
2022/06/06 01:42:31;;;;;;;8.10;3.92;;;;;;;;;;6247353;23;20424;-68
2022/06/06 01:45:16;;;;;;;8.45;3.72;;;;;;;;;;6247158;23;20061;-68
2022/06/06 01:47:44;;;;;;;6.63;3.78;;;;;;;;;;6170305;23;20376;-67
2022/06/06 01:50:10;;;;;;;7.35;3.72;;;;;;;;;;6247136;23;20000;-67
2022/06/06 01:52:54;;;;;;;6.93;4.00;;;;;;;;;;6246863;23;20373;-68
2022/06/06 01:55:20;;;;;;;7.38;4.32;;;;;;;;;;6246798;23;20424;-68
2022/06/06 01:57:45;;;;;;;7.82;4.40;;;;;;;;;;6247226;23;20000;-68
2022/06/06 02:00:11;;;;;;;8.68;5.07;;;;;;;;;;6246290;23;19996;-68
2022/06/06 02:02:36;;;;;;;7.68;5.07;;;;;;;;;;6246832;23;20027;-68
2022/06/06 02:05:02;;;;;;;10.95;5.40;;;;;;;;;;6246975;23;20004;-68
2022/06/06 02:07:27;;;;;;;7.63;4.95;;;;;;;;;;6246440;23;20013;-68
2022/06/06 02:09:53;;;;;;;9.77;4.82;;;;;;;;;;6247328;23;20011;-68
2022/06/06 02:12:20;;;;;;;6.57;4.28;;;;;;;;;;6246930;23;20412;-68
2022/06/06 02:14:47;;;;;;;10.55;5.10;;;;;;;;;;6247174;23;20404;-69
2022/06/06 02:17:12;;;;;;;7.78;4.68;;;;;;;;;;6247002;23;20125;-68
2022/06/06 02:19:37;;;;;;;9.38;4.82;;;;;;;;;;6246690;23;20011;-68
2022/06/06 02:22:03;;;;;;;9.32;5.18;;;;;;;;;;6246898;23;19996;-68
2022/06/06 02:24:28;;;;;;;10.80;4.70;;;;;;;;;;6246752;23;20313;-68
2022/06/06 02:26:53;;;;;;;12.02;5.95;;;;;;;;;;6246908;23;20004;-68
2022/06/06 02:29:19;;;;;;;10.45;5.85;;;;;;;;;;6246708;23;19997;-68
2022/06/06 02:31:44;;;;;;;12.13;5.38;;;;;;;;;;6246959;23;19997;-68
2022/06/06 02:34:09;;;;;;;10.13;5.55;;;;;;;;;;6246342;23;20012;-68
2022/06/06 02:36:35;;;;;;;10.85;6.03;;;;;;;;;;6241093;23;20031;-69
2022/06/06 02:39:00;;;;;;;8.75;5.18;;;;;;;;;;6246066;23;20293;-68
2022/06/06 02:41:26;;;;;;;10.98;5.65;;;;;;;;;;6245780;23;20038;-68
2022/06/06 02:43:52;;;;;;;9.90;5.57;;;;;;;;;;6246015;23;20046;-68
2022/06/06 02:46:18;;;;;;;12.60;5.70;;;;;;;;;;6246520;23;20286;-68
2022/06/06 02:48:43;;;;;;;13.65;5.97;;;;;;;;;;6246581;23;20324;-68
2022/06/06 02:51:09;;;;;;;17.48;6.55;;;;;;;;;;6246564;23;20389;-68
2022/06/06 02:53:34;;;;;;;12.73;7.47;;;;;;;;;;6246560;23;20079;-68
2022/06/06 02:55:59;;;;;;;10.05;6.15;;;;;;;;;;6246527;23;20000;-68
2022/06/06 02:58:25;;;;;;;10.95;5.80;;;;;;;;;;6246526;23;20286;-68
2022/06/06 03:01:10;;;;;;;12.65;5.57;;;;;;;;;;6246444;23;20030;-68
2022/06/06 03:03:35;;;;;;;;;;;;;;;;;;6247309;23;20004;-68
2022/06/06 03:06:01;;;;;;;11.85;5.40;;;;;;;;;;6246246;23;19934;-68
2022/06/06 03:08:47;;;;;;;9.68;5.53;;;;;;;;;;6246418;23;20264;-68
2022/06/06 03:11:31;;;;;;;10.23;5.88;;;;;;;;;;6246445;23;20027;-68
2022/06/06 03:14:02;;;;;;;11.70;4.90;;;;;;;;;;6246400;23;20000;-68
2022/06/06 03:22:09;;;;;;;12.85;5.57;;;;;;;;;;6246199;23;20118;-68
2022/06/06 03:24:53;;;;;;;10.93;5.57;;;;;;;;;;6246229;23;20321;-68
2022/06/06 03:27:33;;;;;;;14.93;5.75;;;;;;;;;;6246122;23;20019;-68
2022/06/06 03:29:58;;;;;;;11.57;5.88;;;;;;;;;;6246283;23;20082;-68
2022/06/06 03:32:29;;;;;;;10.02;5.32;;;;;;;;;;6246280;23;20001;-68
2022/06/06 03:35:03;;;;;;;10.50;6.07;;;;;;;;;;6246023;23;20521;-68
2022/06/06 03:37:28;;;;;;;10.50;5.68;;;;;;;;;;6245641;23;20340;-68
2022/06/06 03:40:08;;;;;;;10.73;5.72;;;;;;;;;;6246284;23;20061;-68
2022/06/06 03:42:44;;;;;;;10.75;5.43;;;;;;;;;;6245719;23;20856;-68
2022/06/06 03:45:09;;;;;;;10.52;5.40;;;;;;;;;;6246085;23;20008;-68
2022/06/06 03:47:34;;;;;;;12.07;6.05;;;;;;;;;;6245383;23;20066;-68
2022/06/06 03:50:02;;;;;;;11.10;5.93;;;;;;;;;;6245881;23;20065;-68
2022/06/06 03:52:36;;;;;;;11.73;6.03;;;;;;;;;;6245506;23;20316;-68
2022/06/06 03:55:01;;;;;;;12.38;6.15;;;;;;;;;;6245736;23;20600;-68
2022/06/06 03:57:27;;;;;;;10.73;5.75;;;;;;;;;;6246012;23;20031;-68
2022/06/06 03:59:57;;;;;;;11.40;6.03;;;;;;;;;;6245986;23;20059;-67
2022/06/06 04:02:28;;;;;;;10.43;6.07;;;;;;;;;;6245960;23;20014;-68
2022/06/06 04:04:54;;;;;;;14.40;6.25;;;;;;;;;;6245850;23;20014;-68
2022/06/06 04:07:19;;;;;;;10.95;6.18;;;;;;;;;;6245915;23;20047;-68
2022/06/06 04:09:47;;;;;;;11.40;5.90;;;;;;;;;;6246048;23;20359;-68
2022/06/06 04:12:12;;;;;;;12.32;6.13;;;;;;;;;;6245836;23;20003;-68
2022/06/06 04:14:52;;;;;;;10.63;6.07;;;;;;;;;;6245528;23;20026;-68
2022/06/06 04:17:20;;;;;;;12.10;6.25;;;;;;;;;;6245787;23;20004;-68
2022/06/06 04:19:48;;;;;;;11.65;6.22;;;;;;;;;;6245925;23;20062;-68
2022/06/06 04:22:32;;;;;;;11.93;6.10;;;;;;;;;;6245520;23;20000;-67
2022/06/06 04:25:10;;;;;;;10.43;5.78;;;;;;;;;;6245574;23;20080;-68
2022/06/06 04:27:42;;;;;;;11.02;6.10;;;;;;;;;;6245842;23;20022;-68
2022/06/06 04:30:20;;;;;;;12.05;5.97;;;;;;;;;;6245644;23;20003;-68
2022/06/06 04:32:46;;;;;;;12.90;5.38;;;;;;;;;;6245512;23;20472;-68
2022/06/06 04:35:17;;;;;;;14.73;6.25;;;;;;;;;;6245734;23;20004;-68
2022/06/06 04:37:45;;;;;;;13.32;6.43;;;;;;;;;;6245849;23;20004;-67
2022/06/06 04:40:38;;;;;;;12.70;5.63;;;;;;;;;;6245403;23;20451;-68
2022/06/06 04:43:03;;;;;;;11.20;5.88;;;;;;;;;;6245697;23;19996;-68
2022/06/06 04:45:37;;;;;;;10.27;6.38;;;;;;;;;;6245811;23;20083;-68
2022/06/06 04:48:04;;;;;;;11.35;5.88;;;;;;;;;;6245656;23;20032;-68
2022/06/06 04:50:30;;;;;;;11.02;5.57;;;;;;;;;;6247373;23;20004;-68
2022/06/06 04:52:56;;;;;;;13.43;5.70;;;;;;;;;;6247888;23;20007;-67
2022/06/06 04:55:23;;;;;;;14.27;5.85;;;;;;;;;;6247712;23;19997;-67
2022/06/06 04:57:51;;;;;;;11.02;5.57;;;;;;;;;;6247987;23;20009;-67
2022/06/06 05:00:16;;;;;;;10.73;5.32;;;;;;;;;;6247766;23;20004;-67
2022/06/06 05:02:41;;;;;;;9.18;5.18;;;;;;;;;;6247627;23;19996;-68
2022/06/06 05:05:07;;;;;;;11.32;5.07;;;;;;;;;;6247494;23;20008;-68
2022/06/06 05:07:51;;;;;;;10.20;5.32;;;;;;;;;;6247678;23;20051;-68
2022/06/06 05:10:32;;;;;;;10.98;5.10;;;;;;;;;;6247594;23;20079;-67
2022/06/06 05:12:57;;;;;;;9.10;4.93;;;;;;;;;;6247627;23;20030;-68
2022/06/06 05:15:25;;;;;;;9.40;5.10;;;;;;;;;;6247395;23;20000;-68
2022/06/06 05:17:50;;;;;;;10.18;5.20;;;;;;;;;;6247704;23;20047;-68
2022/06/06 05:20:28;;;;;;;7.97;4.68;;;;;;;;;;6247633;23;20400;-68
2022/06/06 05:23:06;;;;;;;10.85;4.95;;;;;;;;;;6247227;23;20324;-68
2022/06/06 05:25:43;;;;;;;11.02;4.78;;;;;;;;;;6247435;23;20008;-68
2022/06/06 05:28:08;;;;;;;7.95;5.10;;;;;;;;;;6247402;23;20079;-68
2022/06/06 05:30:45;;;;;;;9.13;5.00;;;;;;;;;;6247420;23;20024;-68
2022/06/06 05:33:36;;;;;;;7.60;5.15;;;;;;;;;;6247407;23;20015;-68
2022/06/06 05:36:04;;;;;;;8.10;4.78;;;;;;;;;;6189291;23;20043;-68
2022/06/06 05:38:43;;;;;;;8.75;5.10;;;;;;;;;;6247427;23;20004;-68
2022/06/06 05:41:11;;;;;;;7.38;4.63;;;;;;;;;;6247253;23;20008;-67
2022/06/06 05:43:36;;;;;;;8.82;4.57;;;;;;;;;;6247288;23;20000;-68
2022/06/06 05:46:07;;;;;;;6.80;4.32;;;;;;;;;;6247140;23;20317;-68
2022/06/06 05:48:40;;;;;;;7.32;4.80;;;;;;;;;;6247146;23;20046;-68
2022/06/06 05:51:26;;;;;;;8.73;4.97;;;;;;;;;;6247192;23;20011;-68
2022/06/06 05:53:52;;;;;;;8.68;4.93;;;;;;;;;;6247541;23;20426;-68
2022/06/06 05:56:36;;;;;;;8.50;4.70;;;;;;;;;;6247235;23;20019;-68
2022/06/06 05:59:01;;;;;;;9.73;4.72;;;;;;;;;;6246438;23;20444;-68
2022/06/06 06:01:32;;;;;;;8.35;4.80;;;;;;;;;;6246586;23;20004;-68
2022/06/06 06:04:09;;;;;;;11.43;4.65;;;;;;;;;;6246880;23;20365;-68
2022/06/06 06:06:48;;;;;;;7.50;4.65;;;;;;;;;;6246966;23;20012;-68
2022/06/06 06:09:16;;;;;;;8.05;4.55;;;;;;;;;;6246637;23;20012;-68
2022/06/06 06:11:50;;;;;;;10.23;4.80;;;;;;;;;;6247130;23;20004;-68
2022/06/06 06:14:39;;;;;;;10.52;5.18;;;;;;;;;;6246987;23;20004;-68
2022/06/06 06:17:04;;;;;;;9.70;4.50;;;;;;;;;;6225869;23;20327;-68
2022/06/06 06:19:50;;;;;;;7.88;4.20;;;;;;;;;;6246800;23;20075;-68
2022/06/06 06:22:17;;;;;;;9.02;4.75;;;;;;;;;;6245521;23;20008;-68
2022/06/06 06:24:42;;;;;;;7.63;4.57;;;;;;;;;;6247030;23;20004;-68
2022/06/06 06:27:08;;;;;;;8.23;4.70;;;;;;;;;;6246543;23;19989;-68
2022/06/06 06:29:34;;;;;;;9.02;4.53;;;;;;;;;;6246496;23;20102;-68
2022/06/06 06:32:14;;;;;;;6.60;4.25;;;;;;;;;;6219506;23;20012;-68
2022/06/06 06:34:45;;;;;;;9.93;5.00;;;;;;;;;;6246652;23;20420;-68
2022/06/06 06:37:28;;;;;;;6.55;4.38;;;;;;;;;;6246593;23;20440;-68
2022/06/06 06:40:09;;;;;;;7.72;4.15;;;;;;;;;;6246994;23;20363;-68
2022/06/06 06:42:37;;;;;;;7.82;4.47;;;;;;;;;;6246795;23;20031;-68
2022/06/06 06:45:08;;;;;;;8.30;4.30;;;;;;;;;;6246787;23;20000;-68
2022/06/06 06:47:34;;;;;;;6.35;4.05;;;;;;;;;;6246839;23;20020;-68
2022/06/06 06:50:02;;;;;;;11.35;3.88;;;;;;;;;;6247131;23;19999;-68
2022/06/06 06:52:38;;;;;;;7.50;3.88;;;;;;;;;;6246743;23;20032;-67
2022/06/06 06:55:26;;;;;;;5.90;3.75;;;;;;;;;;6246637;23;20087;-68
2022/06/06 06:57:55;;;;;;;5.68;3.50;;;;;;;;;;6226382;23;20008;-68
2022/06/06 07:00:21;;;;;;;5.82;3.30;;;;;;;;;;6246258;23;20056;-69
2022/06/06 07:09:08;;;;;;;5.68;2.25;;;;;;;;;;6094563;23;20049;-68
2022/06/06 07:11:33;;;;;;;4.57;2.65;;;;;;;;;;6216733;23;20305;-68
2022/06/06 07:14:01;;;;;;;5.13;2.47;;;;;;;;;;6246151;23;20007;-68
2022/06/06 07:16:28;;;;;;;4.25;2.65;;;;;;;;;;6246483;23;19996;-68
2022/06/06 07:18:59;;;;;;;3.72;2.25;;;;;;;;;;6246278;23;20000;-69
2022/06/06 07:21:25;;;;;;;3.85;2.47;;;;;;;;;;6246071;23;20035;-68
2022/06/06 07:23:52;;;;;;;3.40;1.83;;;;;;;;;;6246289;23;20358;-68
2022/06/06 07:26:17;;;;;;;3.08;1.85;;;;;;;;;;6245863;23;20023;-68
2022/06/06 07:28:44;;;;;;;6.05;2.08;;;;;;;;;;6246137;23;20432;-68
2022/06/06 07:31:16;;;;;;;3.55;1.88;;;;;;;;;;6245529;23;19992;-68
2022/06/06 07:34:00;;;;;;;2.60;1.55;;;;;;;;;;6245408;23;20011;-69
2022/06/06 07:36:37;;;;;;;5.28;1.70;;;;;;;;;;6244245;23;20000;-68
2022/06/06 07:39:09;;;;;;;2.90;1.45;;;;;;;;;;6245667;23;20011;-68
2022/06/06 07:41:56;;;;;;;4.60;1.20;;;;;;;;;;6244569;23;20000;-68
2022/06/06 07:44:33;;;;;;;2.20;1.20;;;;;;;;;;6245288;23;20368;-68
2022/06/06 07:47:06;;;;;;;3.35;1.30;;;;;;;;;;6245501;23;20004;-69
2022/06/06 07:49:51;;;;;;;8.63;1.60;;;;;;;;;;6244885;23;20044;-68
2022/06/06 07:52:16;;;;;;;2.85;1.45;;;;;;;;;;6238825;23;20008;-68
2022/06/06 07:54:50;;;;;;;2.85;1.60;;;;;;;;;;6244168;23;20482;-68
2022/06/06 07:57:15;;;;;;;2.00;1.30;;;;;;;;;;6244781;23;20451;-68
2022/06/06 07:59:41;;;;;;;2.10;1.40;;;;;;;;;;6245614;23;19992;-68
2022/06/06 08:02:12;;;;;;;2.63;1.30;;;;;;;;;;6245599;23;20070;-68
2022/06/06 08:04:51;;;;;;;2.10;1.20;;;;;;;;;;6245106;23;20004;-68
2022/06/06 08:07:19;;;;;;;2.05;1.20;;;;;;;;;;6244826;23;20019;-67
2022/06/06 08:10:03;;;;;;;3.08;1.20;;;;;;;;;;6245680;23;20008;-68
2022/06/06 08:13:01;;;;;;;1.70;1.08;;;;;;;;;;6245730;23;20004;-68
2022/06/06 08:15:49;;;;;;;2.00;1.10;;;;;;;;;;6162544;23;20114;-68
2022/06/06 08:18:26;;;;;;;2.22;1.00;;;;;;;;;;6224593;23;20074;-68
2022/06/06 08:20:54;;;;;;;2.30;1.20;;;;;;;;;;6245304;23;20070;-68
2022/06/06 08:23:20;;;;;;;2.08;1.20;;;;;;;;;;6245033;23;20629;-68
2022/06/06 08:25:46;;;;;;;4.22;1.10;;;;;;;;;;6244359;23;20447;-68
2022/06/06 08:28:12;;;;;;;2.67;1.02;;;;;;;;;;6246004;23;20015;-68
2022/06/06 08:30:39;;;;;;;2.00;1.23;;;;;;;;;;6245714;23;20067;-68
2022/06/06 08:33:04;;;;;;;2.08;1.30;;;;;;;;;;6245580;23;20012;-69
2022/06/06 08:35:35;;;;;;;3.42;1.10;;;;;;;;;;6245414;23;20409;-68
2022/06/06 08:38:00;;;;;;;1.73;1.10;;;;;;;;;;6245545;23;20062;-69
2022/06/06 08:40:25;;;;;;;5.13;1.10;;;;;;;;;;6235671;23;20424;-68
2022/06/06 08:42:52;;;;;;;3.22;1.00;;;;;;;;;;6245836;23;20067;-68
2022/06/06 08:45:18;;;;;;;1.88;1.00;;;;;;;;;;6244540;23;20383;-68
2022/06/06 08:47:46;;;;;;;3.55;1.00;;;;;;;;;;6245275;23;20011;-69
2022/06/06 08:53:09;;;;;;;2.90;1.20;;;;;;;;;;6242382;23;20069;-68
2022/06/06 08:55:40;;;;;;;1.88;1.05;;;;;;;;;;6245119;23;20451;-68
2022/06/06 08:58:15;;;;;;;1.75;0.98;;;;;;;;;;6245459;23;20000;-68
2022/06/06 09:00:48;;;;;;;2.22;1.02;;;;;;;;;;6228556;23;20027;-68
2022/06/06 09:03:31;;;;;;;2.78;1.02;;;;;;;;;;6242555;23;20012;-68
2022/06/06 09:05:58;;;;;;;1.88;1.05;;;;;;;;;;6232062;23;20042;-69
2022/06/06 09:08:42;;;;;;;2.25;1.20;;;;;;;;;;6235308;23;20054;-68
2022/06/06 09:11:14;;;;;;;1.52;0.90;;;;;;;;;;6237964;23;19992;-69
2022/06/06 09:13:48;;;;;;;2.05;1.00;;;;;;;;;;6240968;23;20015;-69
2022/06/06 09:16:32;;;;;;;1.83;1.17;;;;;;;;;;6240182;23;19989;-68
2022/06/06 09:18:58;;;;;;;;;;;;;;;;;;6240661;23;20011;-70
2022/06/06 09:21:29;;;;;;;1.55;0.93;;;;;;;;;;6240662;23;19974;-69
2022/06/06 09:24:21;;;;;;;3.47;1.00;;;;;;;;;;6240972;23;20005;-68
2022/06/06 09:26:46;;;;;;;5.88;1.38;;;;;;;;;;6239754;23;20032;-68
2022/06/06 09:29:21;;;;;;;3.20;1.80;;;;;;;;;;6238993;23;20012;-69
2022/06/06 09:32:02;;;;;;;3.05;2.00;;;;;;;;;;6238751;23;20397;-69
2022/06/06 09:34:57;;;;;;;3.75;1.88;;;;;;;;;;6239987;23;20004;-69
2022/06/06 09:37:32;;;;;;;6.47;1.75;;;;;;;;;;6107621;23;20014;-68
2022/06/06 09:40:14;;;;;;;4.68;1.30;;;;;;;;;;6242725;23;20358;-69
2022/06/06 09:43:09;;;;;;;2.17;1.05;;;;;;;;;;6241315;23;20008;-68
2022/06/06 09:45:44;;;;;;;2.08;0.95;;;;;;;;;;6209349;23;20008;-69
2022/06/06 09:48:28;;;;;;;2.72;1.58;;;;;;;;;;6242347;23;20023;-69
2022/06/06 09:50:53;;;;;;;;;;;;;;;;;;6240908;23;20008;-69
2022/06/06 09:53:37;;;;;;;2.85;1.88;;;;;;;;;;6238439;23;19989;-68
2022/06/06 09:59:16;;;;;;;5.03;2.35;;;;;;;;;;6242717;23;19907;-68
2022/06/06 10:01:47;;;;;;;2.67;1.60;;;;;;;;;;6243027;23;20000;-69
2022/06/06 10:04:13;;;;;;;6.38;2.17;;;;;;;;;;6238771;23;20027;-69
2022/06/06 10:06:47;;;;;;;3.25;1.63;;;;;;;;;;6239463;23;20371;-68
2022/06/06 10:09:24;;;;;;;2.92;1.65;;;;;;;;;;6241623;23;20012;-69
2022/06/06 10:11:59;;;;;;;2.47;1.48;;;;;;;;;;6208843;23;21032;-69
2022/06/06 10:14:27;;;;;;;4.20;1.60;;;;;;;;;;6240916;23;20083;-69
2022/06/06 18:39:00;;;;;;;8.77;3.53;;;;;;;;;;6310482;22;20033;-70
2022/06/06 18:41:28;;;;;;;8.43;3.78;;;;;;;;;;6336666;22;20012;-69
2022/06/06 18:43:56;;;;;;;7.60;3.40;;;;;;;;;;6337082;22;19995;-69
2022/06/06 18:46:28;;;;;;;4.18;3.00;;;;;;;;;;6338755;22;20410;-70
2022/06/06 18:48:56;;;;;;;7.18;4.68;;;;;;;;;;6337668;22;20006;-69
2022/06/06 18:51:23;;;;;;;7.10;3.83;;;;;;;;;;6338913;22;20073;-69
2022/06/06 18:53:54;;;;;;;4.63;3.20;;;;;;;;;;6337698;22;20003;-69
2022/06/06 18:56:35;;;;;;;6.57;3.65;;;;;;;;;;6339070;22;20003;-69
2022/06/06 18:59:04;;;;;;;8.90;4.13;;;;;;;;;;6337714;22;20013;-70
2022/06/06 19:01:33;;;;;;;7.88;3.78;;;;;;;;;;6338854;22;19999;-69
2022/06/06 19:04:00;;;;;;;6.60;3.88;;;;;;;;;;6339030;22;19995;-69
2022/06/06 19:06:32;;;;;;;7.20;3.92;;;;;;;;;;6338853;22;19995;-69
2022/06/06 19:08:59;;;;;;;8.38;4.25;;;;;;;;;;6338168;22;20361;-69
2022/06/06 19:11:27;;;;;;;8.30;4.13;;;;;;;;;;6338224;22;20018;-69
2022/06/06 19:13:57;;;;;;;6.15;4.30;;;;;;;;;;6337597;22;19995;-69
2022/06/06 19:16:25;;;;;;;7.93;4.00;;;;;;;;;;6338904;22;20002;-69
2022/06/06 19:18:51;;;;;;;7.03;4.65;;;;;;;;;;6339116;22;20006;-70
2022/06/06 19:21:29;;;;;;;11.30;4.82;;;;;;;;;;6338637;22;20029;-69
2022/06/06 19:24:02;;;;;;;6.78;4.45;;;;;;;;;;6338977;22;20448;-69
2022/06/06 19:26:41;;;;;;;7.93;4.57;;;;;;;;;;6339196;22;19994;-69
2022/06/06 19:29:10;;;;;;;10.00;4.22;;;;;;;;;;6339206;22;20359;-69
2022/06/06 19:31:42;;;;;;;9.63;4.57;;;;;;;;;;6338793;22;20473;-69
2022/06/06 19:34:11;;;;;;;8.43;4.10;;;;;;;;;;6338981;22;20014;-69
2022/06/06 19:36:37;;;;;;;9.63;4.82;;;;;;;;;;6339160;22;19995;-69
2022/06/06 19:39:22;;;;;;;8.00;4.80;;;;;;;;;;6339062;22;20357;-69
2022/06/06 19:41:47;;;;;;;8.25;5.20;;;;;;;;;;6339077;22;20003;-69
2022/06/06 19:44:17;;;;;;;7.63;4.25;;;;;;;;;;6339165;22;20002;-69
2022/06/06 19:46:43;;;;;;;11.00;5.03;;;;;;;;;;6339291;22;20060;-69
2022/06/06 19:49:12;;;;;;;11.70;5.28;;;;;;;;;;6338738;22;20025;-69
2022/06/06 19:51:40;;;;;;;6.07;4.30;;;;;;;;;;6321948;22;20009;-69
2022/06/06 19:54:05;;;;;;;9.10;4.60;;;;;;;;;;6338665;22;19994;-69
2022/06/06 19:56:37;;;;;;;7.32;4.57;;;;;;;;;;6339018;22;20368;-68
2022/06/06 19:59:03;;;;;;;9.13;5.20;;;;;;;;;;6338299;22;20018;-68
2022/06/06 20:01:30;;;;;;;10.52;4.85;;;;;;;;;;6338660;22;19995;-69
2022/06/06 20:04:03;;;;;;;8.20;5.88;;;;;;;;;;6335282;22;20010;-69
2022/06/06 20:06:30;;;;;;;9.98;5.03;;;;;;;;;;6338804;22;20007;-69
2022/06/06 20:09:10;;;;;;;9.45;5.63;;;;;;;;;;6338895;22;19999;-69
2022/06/06 20:11:52;;;;;;;9.18;5.43;;;;;;;;;;6338324;22;20017;-69
2022/06/06 20:14:20;;;;;;;9.73;5.70;;;;;;;;;;6310924;22;20349;-69
2022/06/06 20:16:50;;;;;;;12.57;5.88;;;;;;;;;;6338454;22;20322;-69
2022/06/06 20:19:20;;;;;;;10.38;5.70;;;;;;;;;;6336025;22;20446;-69
2022/06/06 20:21:47;;;;;;;8.77;5.57;;;;;;;;;;6336105;22;20094;-69
2022/06/06 20:24:18;;;;;;;10.77;6.25;;;;;;;;;;6336791;22;20349;-69
2022/06/06 20:26:43;;;;;;;12.18;6.22;;;;;;;;;;6334664;22;20310;-69
2022/06/06 20:29:21;;;;;;;11.82;6.15;;;;;;;;;;6337648;22;19999;-69
2022/06/06 20:34:40;;;;;;;13.40;6.63;;;;;;;;;;6336931;22;20376;-69
2022/06/06 20:37:14;;;;;;;12.35;6.20;;;;;;;;;;6338518;22;20007;-68
2022/06/06 20:39:45;;;;;;;11.65;5.82;;;;;;;;;;6337579;22;20014;-68
2022/06/06 20:42:39;;;;;;;12.05;6.45;;;;;;;;;;6338607;22;20022;-68
2022/06/06 20:45:07;;;;;;;11.45;6.30;;;;;;;;;;6304597;22;20013;-68
2022/06/06 20:47:33;;;;;;;15.55;6.25;;;;;;;;;;6338806;22;20002;-68
2022/06/06 20:50:04;;;;;;;12.13;6.50;;;;;;;;;;6338629;22;20428;-69
2022/06/06 20:52:29;;;;;;;12.98;6.72;;;;;;;;;;6338280;22;20426;-69
2022/06/06 20:54:56;;;;;;;11.88;7.10;;;;;;;;;;6338875;22;20095;-69
2022/06/06 20:57:27;;;;;;;21.60;9.20;;;;;;;;;;6338541;22;19995;-69
2022/06/06 20:59:53;;;;;;;20.00;9.25;;;;;;;;;;6338594;22;20015;-69
2022/06/06 21:02:18;;;;;;;18.77;8.63;;;;;;;;;;6338681;22;20483;-68
2022/06/06 21:04:45;;;;;;;17.38;8.20;;;;;;;;;;6338314;22;19998;-69
2022/06/06 21:07:23;;;;;;;16.95;7.65;;;;;;;;;;6338671;22;20037;-68
2022/06/06 21:09:48;;;;;;;13.95;8.00;;;;;;;;;;6338799;22;20117;-68
2022/06/06 21:12:14;;;;;;;15.25;7.43;;;;;;;;;;6338318;22;20030;-69
2022/06/06 21:14:40;;;;;;;21.63;8.57;;;;;;;;;;6338673;22;20009;-68
2022/06/06 21:17:05;;;;;;;19.10;8.13;;;;;;;;;;6338666;22;19994;-69
2022/06/06 21:19:30;;;;;;;16.45;7.97;;;;;;;;;;6338481;22;20426;-69
2022/06/06 21:21:58;;;;;;;16.63;7.75;;;;;;;;;;6338412;22;20003;-69
2022/06/06 21:24:26;;;;;;;13.75;7.25;;;;;;;;;;6338334;22;20509;-69
2022/06/06 21:26:52;;;;;;;17.63;8.07;;;;;;;;;;6338556;22;20378;-69
2022/06/06 21:29:17;;;;;;;19.10;7.57;;;;;;;;;;6337923;22;20002;-69
2022/06/06 21:31:42;;;;;;;16.35;7.47;;;;;;;;;;6339316;22;20394;-69
2022/06/06 21:34:07;;;;;;;16.00;7.38;;;;;;;;;;6340456;22;20087;-69
2022/06/06 21:36:33;;;;;;;17.67;7.30;;;;;;;;;;6339889;22;20006;-69
2022/06/06 21:38:58;;;;;;;23.50;8.48;;;;;;;;;;6339866;22;20011;-69
2022/06/06 21:41:23;;;;;;;15.45;7.70;;;;;;;;;;6340256;22;20540;-69
2022/06/06 21:43:49;;;;;;;16.45;8.10;;;;;;;;;;6339504;22;20007;-70
2022/06/06 21:46:17;;;;;;;17.02;8.05;;;;;;;;;;6340204;22;19994;-68
2022/06/06 21:48:42;;;;;;;20.50;8.45;;;;;;;;;;6339983;22;20003;-69
2022/06/06 21:53:57;;;;;;;17.65;7.28;;;;;;;;;;6339731;22;20002;-69
2022/06/06 21:56:30;;;;;;;17.30;8.07;;;;;;;;;;6339823;22;20422;-69
2022/06/06 21:58:56;;;;;;;21.27;7.90;;;;;;;;;;6339647;22;20003;-69
2022/06/06 22:01:22;;;;;;;16.40;8.20;;;;;;;;;;6339627;22;20103;-69
2022/06/06 22:03:48;;;;;;;17.88;7.72;;;;;;;;;;6339607;22;19995;-69
2022/06/06 22:06:13;;;;;;;21.25;8.30;;;;;;;;;;6339964;22;20068;-69
2022/06/06 22:08:40;;;;;;;20.30;8.55;;;;;;;;;;6339462;22;20064;-69
2022/06/06 22:11:08;;;;;;;19.95;8.38;;;;;;;;;;6339894;22;19998;-69
2022/06/06 22:13:34;;;;;;;17.73;7.32;;;;;;;;;;6340083;22;20279;-69
2022/06/06 22:15:59;;;;;;;20.17;7.93;;;;;;;;;;6340155;22;20003;-69
2022/06/06 22:18:25;;;;;;;24.52;8.20;;;;;;;;;;6338962;22;20077;-69
2022/06/06 22:20:51;;;;;;;23.17;9.15;;;;;;;;;;6339699;22;19995;-69
2022/06/06 22:23:16;;;;;;;28.20;8.70;;;;;;;;;;6339052;22;20002;-68
2022/06/06 22:25:41;;;;;;;23.10;9.02;;;;;;;;;;6339067;22;20055;-68
2022/06/06 22:28:06;;;;;;;21.23;8.60;;;;;;;;;;6339317;22;19999;-69
2022/06/06 22:30:31;;;;;;;26.45;8.70;;;;;;;;;;6340060;22;20013;-68
2022/06/06 22:32:57;;;;;;;26.23;8.60;;;;;;;;;;6339665;22;20026;-69
2022/06/06 22:35:24;;;;;;;31.42;9.65;;;;;;;;;;6339664;22;19997;-69
2022/06/06 22:37:49;;;;;;;25.70;9.90;;;;;;;;;;6339774;22;20015;-69
2022/06/06 22:40:14;;;;;;;23.42;9.50;;;;;;;;;;6339849;22;20019;-69
2022/06/06 22:42:40;;;;;;;25.23;9.32;;;;;;;;;;6339665;22;20066;-69
2022/06/06 22:45:05;;;;;;;45.28;10.30;;;;;;;;;;6339836;22;20018;-69
2022/06/06 22:47:31;;;;;;;35.33;12.40;;;;;;;;;;6339908;22;20284;-69
2022/06/06 22:49:56;;;;;;;37.78;11.00;;;;;;;;;;6339532;22;20014;-69
2022/06/06 22:52:21;;;;;;;45.97;10.57;;;;;;;;;;6339673;22;20030;-69
2022/06/06 22:54:47;;;;;;;33.97;10.27;;;;;;;;;;6339805;22;20023;-69
2022/06/06 22:57:13;;;;;;;37.17;10.13;;;;;;;;;;6339599;22;19995;-69
2022/06/06 22:59:38;;;;;;;29.42;9.65;;;;;;;;;;6339509;22;20065;-68
2022/06/06 23:02:04;;;;;;;26.75;10.45;;;;;;;;;;6339251;22;20341;-68
2022/06/06 23:04:29;;;;;;;27.00;10.07;;;;;;;;;;6339724;22;19991;-69
2022/06/06 23:06:54;;;;;;;28.15;9.57;;;;;;;;;;6338848;22;20334;-69
2022/06/06 23:09:20;;;;;;;27.75;10.75;;;;;;;;;;6339728;22;19991;-69
2022/06/06 23:11:45;;;;;;;36.75;10.45;;;;;;;;;;6339180;22;19990;-68
2022/06/06 23:14:10;;;;;;;37.50;10.02;;;;;;;;;;6339302;22;20009;-69
2022/06/06 23:16:38;;;;;;;93.97;12.85;;;;;;;;;;6339272;22;20014;-69
2022/06/06 23:19:04;;;;;;;29.88;11.07;;;;;;;;;;6339227;22;20045;-69
2022/06/06 23:21:29;;;;;;;39.42;12.02;;;;;;;;;;6339462;22;20010;-68
2022/06/06 23:23:54;;;;;;;72.78;12.32;;;;;;;;;;6339355;22;19990;-68
2022/06/06 23:26:20;;;;;;;58.28;11.65;;;;;;;;;;6339372;22;20022;-68
2022/06/06 23:28:45;;;;;;;69.13;11.38;;;;;;;;;;6329660;22;20079;-69
2022/06/06 23:31:10;;;;;;;57.65;12.77;;;;;;;;;;6330484;22;19991;-69
2022/06/06 23:33:39;;;;;;;74.55;12.48;;;;;;;;;;6333263;22;19991;-68
2022/06/06 23:36:06;;;;;;;89.32;12.80;;;;;;;;;;6338688;22;20034;-69
2022/06/06 23:38:38;;;;;;;67.82;12.70;;;;;;;;;;6338212;22;20011;-69
2022/06/06 23:41:04;;;;;;;65.85;12.15;;;;;;;;;;6339207;22;19990;-68
2022/06/06 23:43:33;;;;;;;101.80;14.45;;;;;;;;;;6337731;22;20434;-68
2022/06/06 23:48:44;;;;;;;64.15;11.75;;;;;;;;;;6338810;22;20010;-68